Time;durP1;ratioP1;P1;durP2;ratioP2;P2;SDS_P1;SDS_P2;PMS_P1;PMS_P2;Temp;Humidity;BMP_temperature;BMP_pressure;BME280_temperature;BME280_humidity;BME280_pressure;Samples;Min_cycle;Max_cycle;Signal;HPM_P1;HPM_P2
2021/08/18 00:02:24;;;;;;;;;;;24.70;60.00;;;;;;4990226;28;19930;-59
2021/08/18 00:04:54;;;;;;;;;;;24.70;60.00;;;;;;4991480;28;19926;-59
2021/08/18 00:07:21;;;;;;;;;;;24.70;60.00;;;;;;4990062;28;20017;-59
2021/08/18 00:09:49;;;;;;;;;;;24.70;60.00;;;;;;4990105;28;19968;-59
2021/08/18 00:12:16;;;;;;;;;;;24.70;60.20;;;;;;4991372;28;20353;-59
2021/08/18 00:14:44;;;;;;;;;;;24.70;60.30;;;;;;4972945;28;20029;-59
2021/08/18 00:17:11;;;;;;;;;;;24.70;60.00;;;;;;4991256;28;19926;-59
2021/08/18 00:19:38;;;;;;;;;;;24.70;60.00;;;;;;4989744;28;20013;-59
2021/08/18 00:22:05;;;;;;;;;;;24.60;60.10;;;;;;4990797;28;19926;-59
2021/08/18 00:24:33;;;;;;;;;;;24.60;60.30;;;;;;4991024;28;19976;-59
2021/08/18 00:27:00;;;;;;;;;;;24.60;60.30;;;;;;4990008;28;20382;-60
2021/08/18 00:29:38;;;;;;;;;;;24.60;60.30;;;;;;4991002;28;19926;-59
2021/08/18 00:32:05;;;;;;;;;;;24.60;60.40;;;;;;4991192;28;19961;-59
2021/08/18 00:34:32;;;;;;;;;;;24.60;60.30;;;;;;4990888;28;19930;-60
2021/08/18 00:36:59;;;;;;;;;;;24.60;60.30;;;;;;4991225;28;20013;-59
2021/08/18 00:39:26;;;;;;;;;;;24.60;60.30;;;;;;4989014;28;19926;-59
2021/08/18 00:41:54;;;;;;;;;;;24.70;60.40;;;;;;4990094;28;20339;-59
2021/08/18 00:44:21;;;;;;;;;;;24.70;60.40;;;;;;4989496;28;19944;-60
2021/08/18 00:46:54;;;;;;;;;;;24.70;60.50;;;;;;4973229;28;19932;-59
2021/08/18 00:49:22;;;;;;;;;;;24.60;60.30;;;;;;4990527;28;20378;-60
2021/08/18 00:51:49;;;;;;;;;;;24.70;60.30;;;;;;4989419;28;19932;-60
2021/08/18 00:54:17;;;;;;;;;;;24.60;60.00;;;;;;4989042;28;19926;-59
2021/08/18 00:56:44;;;;;;;;;;;24.70;60.20;;;;;;4990647;28;20005;-59
2021/08/18 00:59:12;;;;;;;;;;;24.70;60.40;;;;;;4989399;28;19926;-59
2021/08/18 01:01:40;;;;;;;;;;;24.60;60.30;;;;;;4989292;28;20012;-59
2021/08/18 01:04:07;;;;;;;;;;;24.60;60.50;;;;;;4972149;28;19947;-59
2021/08/18 01:06:38;;;;;;;;;;;24.60;60.50;;;;;;4990367;28;19925;-59
2021/08/18 01:09:09;;;;;;;;;;;24.60;60.50;;;;;;4990275;28;19952;-60
2021/08/18 01:11:37;;;;;;;;;;;24.60;60.60;;;;;;4989196;28;19952;-60
2021/08/18 01:14:04;;;;;;;;;;;24.60;60.60;;;;;;4989436;28;19930;-60
2021/08/18 01:16:34;;;;;;;;;;;24.60;60.80;;;;;;4988903;28;19965;-59
2021/08/18 01:19:03;;;;;;;;;;;24.60;60.70;;;;;;4990462;28;20016;-59
2021/08/18 01:21:30;;;;;;;;;;;24.60;60.70;;;;;;4989144;28;20434;-60
2021/08/18 01:23:57;;;;;;;;;;;24.60;60.70;;;;;;4988945;28;19926;-60
2021/08/18 01:26:24;;;;;;;;;;;24.60;60.70;;;;;;4989361;28;20361;-59
2021/08/18 01:28:51;;;;;;;;;;;24.60;60.80;;;;;;4988883;28;20300;-59
2021/08/18 01:31:18;;;;;;;;;;;24.60;60.90;;;;;;4990389;28;20250;-59
2021/08/18 01:33:45;;;;;;;;;;;24.60;60.90;;;;;;4973217;28;20304;-60
2021/08/18 01:36:12;;;;;;;;;;;24.60;61.70;;;;;;4989370;28;19973;-59
2021/08/18 01:38:39;;;;;;;;;;;24.60;61.00;;;;;;4990367;28;19926;-59
2021/08/18 01:41:08;;;;;;;;;;;24.60;61.10;;;;;;4989443;28;20001;-60
2021/08/18 01:43:35;;;;;;;;;;;24.60;61.00;;;;;;4989942;28;20006;-60
2021/08/18 01:46:02;;;;;;;;;;;24.60;61.10;;;;;;4989850;28;19932;-59
2021/08/18 01:48:32;;;;;;;;;;;24.60;61.10;;;;;;4990197;28;19926;-59
2021/08/18 01:51:03;;;;;;;;;;;24.60;61.10;;;;;;4990169;28;19981;-59
2021/08/18 01:53:31;;;;;;;;;;;24.60;60.90;;;;;;4991771;28;19957;-59
2021/08/18 01:56:03;;;;;;;;;;;24.60;60.90;;;;;;4992282;28;20234;-60
2021/08/18 01:58:33;;;;;;;;;;;24.60;61.00;;;;;;4991913;28;20404;-59
2021/08/18 02:01:04;;;;;;;;;;;24.60;61.00;;;;;;4991991;28;20378;-59
2021/08/18 02:03:31;;;;;;;;;;;24.60;61.10;;;;;;4993159;28;19925;-59
2021/08/18 02:05:58;;;;;;;;;;;24.50;61.00;;;;;;4991858;28;19968;-59
2021/08/18 02:08:25;;;;;;;;;;;24.50;60.90;;;;;;4993291;28;20270;-59
2021/08/18 02:10:52;;;;;;;;;;;24.60;61.30;;;;;;4975988;28;19975;-60
2021/08/18 02:13:20;;;;;;;;;;;24.60;61.20;;;;;;4991747;28;19969;-60
2021/08/18 02:15:47;;;;;;;;;;;24.60;61.20;;;;;;4992237;28;19925;-60
2021/08/18 02:18:15;;;;;;;;;;;24.60;61.30;;;;;;4993332;28;19969;-60
2021/08/18 02:20:45;;;;;;;;;;;24.60;61.20;;;;;;4991595;28;19932;-59
2021/08/18 02:23:13;;;;;;;;;;;24.50;61.10;;;;;;4992290;28;20348;-60
2021/08/18 02:25:40;;;;;;;;;;;24.50;61.00;;;;;;4992683;28;19926;-59
2021/08/18 02:28:08;;;;;;;;;;;24.60;61.30;;;;;;4991373;28;19965;-59
2021/08/18 02:30:35;;;;;;;;;;;24.60;61.20;;;;;;4991554;28;19984;-59
2021/08/18 02:33:02;;;;;;;;;;;24.60;61.20;;;;;;4992666;28;20020;-59
2021/08/18 02:35:29;;;;;;;;;;;24.50;61.10;;;;;;4975345;28;20013;-59
2021/08/18 02:37:57;;;;;;;;;;;24.50;61.00;;;;;;4974634;28;19926;-60
2021/08/18 02:40:25;;;;;;;;;;;24.50;61.10;;;;;;4992603;28;19969;-59
2021/08/18 02:42:53;;;;;;;;;;;24.50;61.00;;;;;;4992067;28;20408;-59
2021/08/18 02:45:21;;;;;;;;;;;24.60;61.10;;;;;;4992739;28;20280;-59
2021/08/18 02:47:49;;;;;;;;;;;24.60;61.10;;;;;;4992463;28;19926;-60
2021/08/18 02:50:17;;;;;;;;;;;24.60;61.10;;;;;;4992326;28;20393;-59
2021/08/18 02:52:44;;;;;;;;;;;24.50;61.20;;;;;;4992631;28;19925;-60
2021/08/18 02:55:11;;;;;;;;;;;24.50;60.90;;;;;;4992069;28;20305;-59
2021/08/18 02:57:39;;;;;;;;;;;24.60;61.30;;;;;;4974805;28;20020;-59
2021/08/18 03:00:06;;;;;;;;;;;24.50;61.00;;;;;;4992238;28;20050;-59
2021/08/18 03:02:34;;;;;;;;;;;24.50;61.20;;;;;;4992201;28;20385;-59
2021/08/18 03:05:01;;;;;;;;;;;24.50;61.00;;;;;;4991578;28;20443;-60
2021/08/18 03:07:28;;;;;;;;;;;24.50;61.10;;;;;;4992479;28;19926;-61
2021/08/18 03:09:55;;;;;;;;;;;24.50;61.10;;;;;;4991973;28;19930;-59
2021/08/18 03:12:22;;;;;;;;;;;24.50;61.30;;;;;;4992233;28;20339;-59
2021/08/18 03:14:49;;;;;;;;;;;24.50;61.20;;;;;;4974053;28;19976;-59
2021/08/18 03:17:16;;;;;;;;;;;24.50;61.10;;;;;;4991845;28;19952;-59
2021/08/18 03:19:43;;;;;;;;;;;24.50;61.20;;;;;;4992114;28;19969;-59
2021/08/18 03:22:10;;;;;;;;;;;24.50;61.10;;;;;;4990835;28;19952;-60
2021/08/18 03:24:37;;;;;;;;;;;24.50;61.00;;;;;;4991781;28;19926;-59
2021/08/18 03:27:04;;;;;;;;;;;24.50;61.00;;;;;;4991835;28;19926;-60
2021/08/18 03:29:31;;;;;;;;;;;24.50;61.10;;;;;;4991772;28;19926;-60
2021/08/18 03:31:58;;;;;;;;;;;24.50;60.80;;;;;;4990973;28;20289;-60
2021/08/18 03:34:25;;;;;;;;;;;24.60;61.00;;;;;;4991978;28;19969;-60
2021/08/18 03:36:52;;;;;;;;;;;24.60;61.10;;;;;;4992052;28;20321;-60
2021/08/18 03:39:25;;;;;;;;;;;24.50;60.90;;;;;;4992115;28;19926;-59
2021/08/18 03:41:52;;;;;;;;;;;24.60;61.00;;;;;;4990917;28;19925;-58
2021/08/18 03:44:19;;;;;;;;;;;24.50;60.80;;;;;;4991703;28;19972;-59
2021/08/18 03:46:46;;;;;;;;;;;24.50;60.80;;;;;;4991407;28;19972;-60
2021/08/18 03:49:14;;;;;;;;;;;24.50;60.70;;;;;;4990316;28;20301;-59
2021/08/18 03:51:41;;;;;;;;;;;24.50;60.70;;;;;;4991426;28;19962;-59
2021/08/18 03:54:08;;;;;;;;;;;24.50;60.60;;;;;;4991076;28;19952;-59
2021/08/18 03:56:35;;;;;;;;;;;24.60;60.90;;;;;;4990376;28;19981;-59
2021/08/18 03:59:02;;;;;;;;;;;24.50;60.70;;;;;;4991204;28;20016;-59
2021/08/18 04:01:30;;;;;;;;;;;24.60;60.70;;;;;;4991336;28;19926;-59
2021/08/18 04:03:57;;;;;;;;;;;24.60;60.60;;;;;;4989968;28;19933;-59
2021/08/18 04:06:24;;;;;;;;;;;24.50;60.60;;;;;;4990043;28;19925;-59
2021/08/18 04:08:52;;;;;;;;;;;24.60;60.60;;;;;;4991115;28;19968;-59
2021/08/18 04:11:19;;;;;;;;;;;24.60;60.60;;;;;;4991392;28;19925;-59
2021/08/18 04:13:46;;;;;;;;;;;24.60;60.60;;;;;;4991049;28;19926;-59
2021/08/18 04:16:13;;;;;;;;;;;24.60;60.60;;;;;;4990134;28;19940;-60
2021/08/18 04:18:40;;;;;;;;;;;24.60;60.70;;;;;;4991238;28;20293;-59
2021/08/18 04:21:08;;;;;;;;;;;24.60;61.30;;;;;;4991302;28;20012;-59
2021/08/18 04:23:35;;;;;;;;;;;24.60;60.50;;;;;;4990064;28;20330;-59
2021/08/18 04:26:02;;;;;;;;;;;24.60;60.60;;;;;;4990881;28;19926;-59
2021/08/18 04:28:29;;;;;;;;;;;24.60;60.40;;;;;;4989829;28;20008;-59
2021/08/18 04:30:56;;;;;;;;;;;24.60;60.50;;;;;;4989813;28;19926;-60
2021/08/18 04:33:23;;;;;;;;;;;24.60;60.60;;;;;;4973555;28;19933;-60
2021/08/18 04:35:50;;;;;;;;;;;24.60;60.30;;;;;;4990963;28;20424;-59
2021/08/18 04:38:17;;;;;;;;;;;24.60;60.40;;;;;;4990195;28;19933;-61
2021/08/18 04:40:45;;;;;;;;;;;24.60;60.60;;;;;;4990857;28;19977;-59
2021/08/18 04:43:15;;;;;;;;;;;24.60;60.40;;;;;;4989524;28;19933;-59
2021/08/18 04:45:44;;;;;;;;;;;24.60;60.50;;;;;;4989687;28;19955;-59
2021/08/18 04:48:11;;;;;;;;;;;24.50;60.30;;;;;;4989888;28;20013;-59
2021/08/18 04:50:38;;;;;;;;;;;24.60;60.40;;;;;;4989764;28;19926;-59
2021/08/18 04:53:06;;;;;;;;;;;24.60;60.60;;;;;;4990559;28;20432;-59
2021/08/18 04:55:33;;;;;;;;;;;24.60;60.70;;;;;;4990309;28;19962;-59
2021/08/18 04:58:00;;;;;;;;;;;24.60;60.70;;;;;;4989199;28;20021;-59
2021/08/18 05:00:27;;;;;;;;;;;24.60;60.70;;;;;;4990478;28;19925;-59
2021/08/18 05:02:54;;;;;;;;;;;24.60;60.70;;;;;;4990421;28;19926;-59
2021/08/18 05:05:22;;;;;;;;;;;24.60;60.80;;;;;;4990169;28;19932;-59
2021/08/18 05:07:50;;;;;;;;;;;24.60;60.80;;;;;;4989484;28;19965;-59
2021/08/18 05:10:18;;;;;;;;;;;24.50;60.80;;;;;;4989611;28;20362;-59
2021/08/18 05:12:45;;;;;;;;;;;24.50;60.80;;;;;;4990277;28;19987;-59
2021/08/18 05:15:12;;;;;;;;;;;24.50;60.70;;;;;;4973142;28;19932;-59
2021/08/18 05:17:44;;;;;;;;;;;24.50;61.70;;;;;;4973669;28;19933;-59
2021/08/18 05:20:14;;;;;;;;;;;24.50;61.00;;;;;;4973252;28;19932;-59
2021/08/18 05:22:42;;;;;;;;;;;24.60;61.00;;;;;;4990023;28;19925;-59
2021/08/18 05:25:10;;;;;;;;;;;24.50;60.90;;;;;;4990000;28;19932;-60
2021/08/18 05:27:37;;;;;;;;;;;24.50;60.90;;;;;;4973703;28;19976;-59
2021/08/18 05:30:06;;;;;;;;;;;24.50;60.90;;;;;;4975375;28;19995;-59
2021/08/18 05:32:33;;;;;;;;;;;24.60;61.00;;;;;;4993715;28;19977;-59
2021/08/18 05:35:00;;;;;;;;;;;24.60;60.90;;;;;;4993692;28;20412;-59
2021/08/18 05:37:27;;;;;;;;;;;24.60;60.90;;;;;;4992953;28;19926;-59
2021/08/18 05:39:54;;;;;;;;;;;24.60;60.70;;;;;;4992918;28;19934;-59
2021/08/18 05:42:21;;;;;;;;;;;24.60;60.40;;;;;;4993827;28;19926;-59
2021/08/18 05:44:48;;;;;;;;;;;24.60;60.70;;;;;;4993448;28;20008;-59
2021/08/18 05:47:15;;;;;;;;;;;24.60;60.80;;;;;;4976253;28;20009;-59
2021/08/18 05:49:42;;;;;;;;;;;24.60;60.70;;;;;;4976146;28;20009;-59
2021/08/18 05:52:10;;;;;;;;;;;24.60;60.70;;;;;;4992106;28;19984;-60
2021/08/18 05:54:38;;;;;;;;;;;24.50;60.80;;;;;;4992844;28;19961;-59
2021/08/18 05:57:05;;;;;;;;;;;24.50;60.70;;;;;;4993050;28;19934;-59
2021/08/18 05:59:32;;;;;;;;;;;24.60;60.80;;;;;;4992268;28;20326;-60
2021/08/18 06:02:00;;;;;;;;;;;24.60;60.60;;;;;;4993073;28;20374;-59
2021/08/18 06:04:27;;;;;;;;;;;24.50;60.80;;;;;;4993184;28;20294;-59
2021/08/18 06:06:54;;;;;;;;;;;24.60;60.80;;;;;;4992925;28;20274;-59
2021/08/18 06:09:21;;;;;;;;;;;24.60;60.70;;;;;;4993297;28;19926;-60
2021/08/18 06:11:49;;;;;;;;;;;24.60;60.60;;;;;;4992862;28;19926;-60
2021/08/18 06:14:16;;;;;;;;;;;24.60;60.70;;;;;;4992764;28;20021;-59
2021/08/18 06:16:43;;;;;;;;;;;24.60;60.60;;;;;;4991889;28;19962;-59
2021/08/18 06:19:10;;;;;;;;;;;24.60;60.70;;;;;;4992871;28;19932;-60
2021/08/18 06:21:37;;;;;;;;;;;24.60;60.60;;;;;;4974387;28;20013;-60
2021/08/18 06:24:26;;;;;;;;;;;24.60;60.60;;;;;;4992532;28;19930;-60
2021/08/18 06:26:52;;;;;;;;;;;24.60;60.70;;;;;;4992680;28;19947;-59
2021/08/18 06:29:21;;;;;;;;;;;24.60;60.70;;;;;;4992615;28;19930;-59
2021/08/18 06:31:48;;;;;;;;;;;24.60;60.60;;;;;;4975258;28;19926;-59
2021/08/18 06:34:15;;;;;;;;;;;24.60;60.60;;;;;;4992437;28;19941;-59
2021/08/18 06:36:43;;;;;;;;;;;24.60;60.60;;;;;;4975383;28;19933;-60
2021/08/18 06:39:10;;;;;;;;;;;24.60;60.40;;;;;;4991991;28;19975;-60
2021/08/18 06:41:37;;;;;;;;;;;24.60;60.50;;;;;;4992779;28;20308;-60
2021/08/18 06:44:04;;;;;;;;;;;24.60;60.40;;;;;;4991718;28;19926;-59
2021/08/18 06:46:31;;;;;;;;;;;24.70;60.50;;;;;;4992456;28;20013;-59
2021/08/18 06:48:58;;;;;;;;;;;24.60;60.30;;;;;;4975163;28;20330;-59
2021/08/18 06:51:25;;;;;;;;;;;24.70;60.40;;;;;;4992524;28;19930;-59
2021/08/18 06:53:52;;;;;;;;;;;24.70;60.30;;;;;;4990798;28;19975;-59
2021/08/18 06:56:19;;;;;;;;;;;24.70;60.50;;;;;;4990911;28;19979;-59
2021/08/18 06:58:47;;;;;;;;;;;24.70;60.40;;;;;;4992069;28;20313;-59
2021/08/18 07:01:14;;;;;;;;;;;24.70;60.30;;;;;;4992141;28;19925;-59
2021/08/18 07:03:41;;;;;;;;;;;24.70;60.30;;;;;;4990710;28;19926;-60
2021/08/18 07:06:08;;;;;;;;;;;24.70;60.20;;;;;;4992681;28;19975;-59
2021/08/18 07:08:35;;;;;;;;;;;24.70;60.30;;;;;;4993209;28;20016;-59
2021/08/18 07:11:02;;;;;;;;;;;24.70;60.20;;;;;;4991948;28;19930;-59
2021/08/18 07:13:29;;;;;;;;;;;24.70;60.20;;;;;;4973535;28;19926;-58
2021/08/18 07:15:56;;;;;;;;;;;24.70;60.20;;;;;;4991011;28;20385;-59
2021/08/18 07:18:23;;;;;;;;;;;24.80;60.20;;;;;;4991761;28;19926;-59
2021/08/18 07:20:51;;;;;;;;;;;24.80;60.30;;;;;;4992055;28;19926;-58
2021/08/18 07:23:18;;;;;;;;;;;24.80;60.30;;;;;;4990778;28;19968;-58
2021/08/18 07:25:45;;;;;;;;;;;24.80;60.20;;;;;;4991637;28;19938;-58
2021/08/18 07:28:12;;;;;;;;;;;24.80;60.00;;;;;;4991635;28;19973;-59
2021/08/18 07:30:39;;;;;;;;;;;24.80;60.10;;;;;;4991715;28;20445;-59
2021/08/18 07:33:06;;;;;;;;;;;24.90;60.10;;;;;;4974640;28;20473;-58
2021/08/18 07:35:33;;;;;;;;;;;24.90;60.00;;;;;;4973636;28;20393;-59
2021/08/18 07:38:00;;;;;;;;;;;24.90;60.00;;;;;;4991768;28;19972;-59
2021/08/18 07:40:26;;;;;;;;;;;24.90;60.00;;;;;;4991993;28;19974;-58
2021/08/18 07:42:55;;;;;;;;;;;24.90;59.90;;;;;;4990442;28;19926;-59
2021/08/18 07:45:23;;;;;;;;;;;25.00;59.90;;;;;;4991627;28;20297;-59
2021/08/18 07:47:50;;;;;;;;;;;25.00;59.80;;;;;;4991411;28;19926;-60
2021/08/18 07:50:17;;;;;;;;;;;25.00;59.80;;;;;;4990375;28;19930;-59
2021/08/18 07:52:44;;;;;;;;;;;25.10;59.60;;;;;;4973125;28;19971;-59
2021/08/18 07:55:12;;;;;;;;;;;25.00;60.00;;;;;;4990799;28;20013;-59
2021/08/18 07:57:39;;;;;;;;;;;25.10;59.70;;;;;;4974036;28;20313;-59
2021/08/18 08:00:07;;;;;;;;;;;25.10;59.70;;;;;;4991207;28;19930;-59
2021/08/18 08:02:34;;;;;;;;;;;25.10;59.50;;;;;;4991138;28;20385;-59
2021/08/18 08:05:05;;;;;;;;;;;25.20;59.50;;;;;;4990019;28;19941;-59
2021/08/18 08:07:32;;;;;;;;;;;25.20;59.50;;;;;;4991167;28;19925;-59
2021/08/18 08:09:59;;;;;;;;;;;25.20;59.40;;;;;;4991269;28;19965;-59
2021/08/18 08:12:26;;;;;;;;;;;25.20;59.40;;;;;;4990819;28;19936;-58
2021/08/18 08:14:53;;;;;;;;;;;25.20;59.50;;;;;;4972538;28;19979;-59
2021/08/18 08:17:25;;;;;;;;;;;25.30;59.40;;;;;;4989695;28;19926;-60
2021/08/18 08:19:52;;;;;;;;;;;25.20;59.30;;;;;;4990899;28;19926;-59
2021/08/18 08:22:19;;;;;;;;;;;25.30;59.40;;;;;;4990971;28;19930;-59
2021/08/18 08:24:46;;;;;;;;;;;25.30;59.20;;;;;;4991028;28;19934;-59
2021/08/18 08:27:14;;;;;;;;;;;25.30;59.30;;;;;;4989807;28;19961;-59
2021/08/18 08:29:41;;;;;;;;;;;25.30;59.30;;;;;;4991125;28;20013;-59
2021/08/18 08:32:08;;;;;;;;;;;25.30;59.40;;;;;;4974314;28;20009;-58
2021/08/18 08:34:35;;;;;;;;;;;25.30;59.40;;;;;;4990155;28;19969;-61
2021/08/18 08:37:03;;;;;;;;;;;25.30;59.30;;;;;;4990174;28;19933;-60
2021/08/18 08:39:30;;;;;;;;;;;25.30;59.20;;;;;;4990794;28;20012;-60
2021/08/18 08:42:09;;;;;;;;;;;25.30;59.10;;;;;;4973353;28;19926;-59
2021/08/18 08:44:41;;;;;;;;;;;25.30;59.10;;;;;;4990392;28;19925;-60
2021/08/18 08:47:08;;;;;;;;;;;25.30;59.20;;;;;;4990731;28;19926;-60
2021/08/18 08:49:36;;;;;;;;;;;25.30;59.10;;;;;;4990462;28;19926;-60
2021/08/18 08:52:03;;;;;;;;;;;25.30;59.10;;;;;;4989987;28;19965;-60
2021/08/18 08:54:30;;;;;;;;;;;25.30;59.40;;;;;;4990287;28;19926;-60
2021/08/18 08:56:58;;;;;;;;;;;25.20;59.30;;;;;;4990325;28;19933;-60
2021/08/18 08:59:25;;;;;;;;;;;25.30;59.50;;;;;;4990709;28;20298;-59
2021/08/18 09:02:03;;;;;;;;;;;25.30;59.50;;;;;;4990236;28;19991;-60
2021/08/18 09:04:35;;;;;;;;;;;25.20;59.50;;;;;;4990474;28;19965;-60
2021/08/18 09:07:06;;;;;;;;;;;25.30;59.50;;;;;;4990385;28;19975;-60
2021/08/18 09:09:34;;;;;;;;;;;25.20;59.50;;;;;;4989746;28;19933;-61
2021/08/18 09:12:04;;;;;;;;;;;25.20;59.40;;;;;;4989114;28;19971;-59
2021/08/18 09:14:31;;;;;;;;;;;25.20;59.40;;;;;;4990170;28;20030;-59
2021/08/18 09:16:58;;;;;;;;;;;25.30;59.30;;;;;;4990397;28;19926;-60
2021/08/18 09:19:29;;;;;;;;;;;25.30;59.40;;;;;;4990023;28;19926;-60
2021/08/18 09:22:06;;;;;;;;;;;25.30;59.20;;;;;;4989274;28;20008;-60
2021/08/18 09:24:33;;;;;;;;;;;25.40;59.10;;;;;;4990013;28;19979;-60
2021/08/18 09:27:08;;;;;;;;;;;25.40;59.00;;;;;;4972718;28;19926;-60
2021/08/18 09:29:44;;;;;;;;;;;25.50;58.90;;;;;;4990057;28;20326;-60
2021/08/18 09:32:32;;;;;;;;;;;25.50;58.80;;;;;;4990038;28;20029;-60
2021/08/18 09:35:08;;;;;;;;;;;25.60;58.70;;;;;;4990306;28;19981;-61
2021/08/18 09:37:36;;;;;;;;;;;25.60;58.70;;;;;;4990028;28;19926;-60
2021/08/18 09:40:21;;;;;;;;;;;25.60;58.60;;;;;;4972735;28;19965;-60
2021/08/18 09:42:49;;;;;;;;;;;25.60;58.40;;;;;;4989894;28;19926;-60
2021/08/18 09:45:21;;;;;;;;;;;25.70;58.40;;;;;;4989579;28;19930;-60
2021/08/18 09:47:51;;;;;;;;;;;25.70;58.40;;;;;;4989665;28;19936;-60
2021/08/18 09:50:21;;;;;;;;;;;25.70;58.30;;;;;;4989080;28;19933;-60
2021/08/18 09:52:49;;;;;;;;;;;25.70;57.90;;;;;;4990125;28;19926;-59
2021/08/18 09:55:23;;;;;;;;;;;25.70;58.10;;;;;;4988474;28;20339;-60
2021/08/18 09:57:51;;;;;;;;;;;25.70;58.00;;;;;;4988898;28;19997;-60
2021/08/18 10:00:19;;;;;;;;;;;25.80;58.00;;;;;;4988529;28;19926;-59
2021/08/18 10:02:46;;;;;;;;;;;25.80;57.80;;;;;;4971660;28;19926;-60
2021/08/18 10:05:14;;;;;;;;;;;25.80;57.90;;;;;;4989882;28;20335;-59
2021/08/18 10:07:41;;;;;;;;;;;25.90;57.70;;;;;;4988526;28;19925;-59
2021/08/18 10:10:09;;;;;;;;;;;25.90;57.70;;;;;;4989871;28;19999;-59
2021/08/18 10:12:36;;;;;;;;;;;25.90;57.60;;;;;;4989929;28;19926;-60
2021/08/18 10:15:04;;;;;;;;;;;25.90;57.70;;;;;;4974870;28;20016;-60
2021/08/18 10:17:38;;;;;;;;;;;25.90;57.70;;;;;;4992142;28;20273;-60
2021/08/18 10:20:06;;;;;;;;;;;25.90;57.50;;;;;;4993212;28;20263;-61
2021/08/18 10:22:33;;;;;;;;;;;25.90;57.30;;;;;;4992853;28;19977;-60
2021/08/18 10:25:19;;;;;;;;;;;25.90;57.20;;;;;;4993066;28;19926;-60
2021/08/18 10:27:47;;;;;;;;;;;25.90;57.40;;;;;;4976640;28;19962;-61
2021/08/18 10:30:25;;;;;;;;;;;25.90;57.40;;;;;;4975034;28;19964;-60
2021/08/18 10:32:52;;;;;;;;;;;26.00;57.30;;;;;;4976527;28;19926;-59
2021/08/18 10:35:41;;;;;;;;;;;26.00;57.20;;;;;;4975899;28;20453;-59
2021/08/18 10:38:27;;;;;;;;;;;26.00;57.20;;;;;;4976378;28;19930;-59
2021/08/18 10:40:54;;;;;;;;;;;26.10;56.80;;;;;;4991467;28;19979;-60
2021/08/18 10:43:40;;;;;;;;;;;26.10;57.10;;;;;;4991401;28;19976;-60
2021/08/18 10:46:08;;;;;;;;;;;26.10;56.80;;;;;;4991487;28;19926;-60
2021/08/18 10:48:54;;;;;;;;;;;26.20;56.90;;;;;;4992468;28;19930;-60
2021/08/18 10:51:39;;;;;;;;;;;26.20;56.90;;;;;;4992436;28;19933;-60
2021/08/18 10:54:25;;;;;;;;;;;26.20;57.10;;;;;;4991922;28;19932;-60
2021/08/18 10:56:57;;;;;;;;;;;26.20;56.30;;;;;;4973931;28;19926;-59
2021/08/18 10:59:36;;;;;;;;;;;26.30;55.90;;;;;;4991560;28;19926;-60
2021/08/18 11:02:04;;;;;;;;;;;26.30;56.10;;;;;;4992264;28;19926;-60
2021/08/18 11:04:49;;;;;;;;;;;26.30;56.10;;;;;;4992162;28;19926;-60
2021/08/18 11:07:16;;;;;;;;;;;26.30;56.20;;;;;;4992180;28;19926;-60
2021/08/18 11:09:46;;;;;;;;;;;26.30;56.10;;;;;;4991168;28;19976;-60
2021/08/18 11:12:32;;;;;;;;;;;26.30;56.30;;;;;;4992402;28;19930;-60
2021/08/18 11:14:59;;;;;;;;;;;26.30;56.40;;;;;;4991803;28;19925;-60
2021/08/18 11:17:27;;;;;;;;;;;26.30;56.40;;;;;;4992375;28;19930;-61
2021/08/18 11:19:54;;;;;;;;;;;26.30;56.30;;;;;;4992285;28;20264;-60
2021/08/18 11:22:23;;;;;;;;;;;26.30;56.20;;;;;;4991845;28;19979;-60
2021/08/18 11:24:50;;;;;;;;;;;26.30;56.20;;;;;;4991499;28;19926;-60
2021/08/18 11:27:17;;;;;;;;;;;26.30;56.10;;;;;;4991630;28;19953;-60
2021/08/18 11:29:44;;;;;;;;;;;26.20;56.20;;;;;;4991686;28;19925;-59
2021/08/18 11:32:11;;;;;;;;;;;26.20;56.30;;;;;;4973522;28;19933;-61
2021/08/18 11:34:40;;;;;;;;;;;26.20;56.30;;;;;;4991964;28;20354;-60
2021/08/18 11:37:09;;;;;;;;;;;26.20;56.30;;;;;;4991880;28;19926;-60
2021/08/18 11:39:37;;;;;;;;;;;26.20;56.40;;;;;;4990604;28;19930;-60
2021/08/18 11:42:11;;;;;;;;;;;26.20;56.40;;;;;;4974752;28;19930;-60
2021/08/18 11:44:39;;;;;;;;;;;26.20;56.30;;;;;;4991888;28;20415;-60
2021/08/18 11:47:07;;;;;;;;;;;26.20;57.00;;;;;;4991424;28;19998;-59
2021/08/18 11:49:35;;;;;;;;;;;26.20;56.30;;;;;;4991631;28;20447;-61
2021/08/18 11:52:03;;;;;;;;;;;26.20;56.40;;;;;;4990398;28;19926;-61
2021/08/18 11:54:31;;;;;;;;;;;26.20;56.30;;;;;;4991479;28;19968;-60
2021/08/18 11:57:00;;;;;;;;;;;26.30;56.10;;;;;;4991130;28;20008;-60
2021/08/18 11:59:27;;;;;;;;;;;26.30;56.20;;;;;;4991406;28;20317;-60
2021/08/18 12:01:55;;;;;;;;;;;26.30;56.10;;;;;;4994449;28;19972;-60
2021/08/18 12:04:23;;;;;;;;;;;26.40;56.50;;;;;;4992929;28;19926;-60
2021/08/18 12:07:12;;;;;;;;;;;26.40;55.70;;;;;;4991122;28;19969;-60
2021/08/18 12:09:42;;;;;;;;;;;26.40;55.90;;;;;;4990061;28;20446;-60
2021/08/18 12:12:15;;;;;;;;;;;26.40;55.60;;;;;;4991152;28;20373;-60
2021/08/18 12:14:46;;;;;;;;;;;26.50;55.80;;;;;;4991074;28;19926;-60
2021/08/18 12:17:14;;;;;;;;;;;26.50;55.60;;;;;;4991354;28;20363;-60
2021/08/18 12:19:48;;;;;;;;;;;26.50;55.50;;;;;;4991296;28;20004;-60
2021/08/18 12:22:16;;;;;;;;;;;26.50;55.80;;;;;;4991247;28;19948;-60
2021/08/18 12:24:48;;;;;;;;;;;26.50;55.70;;;;;;4991258;28;20281;-60
2021/08/18 12:27:19;;;;;;;;;;;26.50;55.60;;;;;;4989640;28;19926;-60
2021/08/18 12:29:46;;;;;;;;;;;26.40;55.10;;;;;;4990939;28;19925;-60
2021/08/18 12:32:13;;;;;;;;;;;26.40;55.60;;;;;;4989864;28;20443;-60
2021/08/18 12:34:45;;;;;;;;;;;26.40;55.40;;;;;;4990819;28;20036;-60
2021/08/18 12:37:21;;;;;;;;;;;26.40;55.70;;;;;;4990024;28;19932;-60
2021/08/18 12:39:58;;;;;;;;;;;26.40;55.70;;;;;;4990790;28;20377;-60
2021/08/18 12:42:30;;;;;;;;;;;26.40;55.40;;;;;;4991058;28;19971;-61
2021/08/18 12:44:58;;;;;;;;;;;26.50;55.20;;;;;;4989814;28;19929;-60
2021/08/18 12:47:29;;;;;;;;;;;26.50;55.30;;;;;;4990709;28;19969;-60
2021/08/18 12:49:56;;;;;;;;;;;26.50;55.40;;;;;;4991049;28;19930;-60
2021/08/18 12:52:24;;;;;;;;;;;26.50;54.80;;;;;;4990964;28;19932;-60
2021/08/18 12:54:55;;;;;;;;;;;26.50;55.20;;;;;;4990196;28;19933;-59
2021/08/18 12:57:24;;;;;;;;;;;26.60;55.00;;;;;;4989764;28;20205;-59
2021/08/18 12:59:51;;;;;;;;;;;26.50;55.20;;;;;;4989371;28;20078;-60
2021/08/18 13:02:18;;;;;;;;;;;26.50;55.10;;;;;;4989584;28;19938;-60
2021/08/18 13:04:46;;;;;;;;;;;26.50;55.00;;;;;;4990706;28;19925;-60
2021/08/18 13:07:13;;;;;;;;;;;26.50;55.20;;;;;;4990491;28;19975;-60
2021/08/18 13:09:40;;;;;;;;;;;26.50;55.40;;;;;;4973061;28;20025;-59
2021/08/18 13:12:08;;;;;;;;;;;26.50;55.30;;;;;;4989607;28;19926;-59
2021/08/18 13:14:35;;;;;;;;;;;26.40;55.40;;;;;;4989303;28;19926;-59
2021/08/18 13:17:03;;;;;;;;;;;26.40;55.20;;;;;;4955149;28;19930;-61
2021/08/18 13:19:30;;;;;;;;;;;26.40;55.60;;;;;;4990358;28;19926;-60
2021/08/18 13:21:57;;;;;;;;;;;26.40;55.50;;;;;;4990419;28;19983;-60
2021/08/18 13:24:25;;;;;;;;;;;26.40;55.70;;;;;;4990672;28;19987;-60
2021/08/18 13:26:56;;;;;;;;;;;26.40;55.90;;;;;;4988873;28;19973;-60
2021/08/18 13:29:24;;;;;;;;;;;26.40;55.90;;;;;;4989098;28;19926;-60
2021/08/18 13:31:52;;;;;;;;;;;26.40;56.00;;;;;;4989944;28;20013;-60
2021/08/18 13:34:20;;;;;;;;;;;26.40;56.00;;;;;;4989269;28;20025;-61
2021/08/18 13:36:47;;;;;;;;;;;26.40;56.00;;;;;;4990038;28;19930;-61
2021/08/18 13:39:15;;;;;;;;;;;26.40;56.00;;;;;;4989995;28;20457;-60
2021/08/18 13:41:43;;;;;;;;;;;26.40;56.10;;;;;;4988967;28;20354;-60
2021/08/18 13:44:12;;;;;;;;;;;26.40;56.00;;;;;;4989919;28;19971;-60
2021/08/18 13:46:40;;;;;;;;;;;26.40;55.90;;;;;;4988648;28;20008;-60
2021/08/18 13:49:07;;;;;;;;;;;26.40;55.70;;;;;;4992648;28;20017;-60
2021/08/18 13:51:35;;;;;;;;;;;26.50;55.90;;;;;;4993568;28;19926;-60
2021/08/18 13:54:02;;;;;;;;;;;26.40;55.80;;;;;;4994137;28;20015;-60
2021/08/18 13:56:30;;;;;;;;;;;26.40;56.00;;;;;;5002708;28;19925;-60
2021/08/18 13:58:57;;;;;;;;;;;26.40;56.00;;;;;;4993378;28;20020;-60
2021/08/18 14:01:24;;;;;;;;;;;26.40;56.00;;;;;;4992338;28;20005;-60
2021/08/18 14:03:52;;;;;;;;;;;26.40;56.00;;;;;;4991947;28;19932;-60
2021/08/18 14:06:19;;;;;;;;;;;26.40;56.10;;;;;;4992996;28;19933;-59
2021/08/18 14:08:47;;;;;;;;;;;26.40;56.10;;;;;;4991935;28;19969;-60
2021/08/18 14:11:14;;;;;;;;;;;26.50;56.20;;;;;;4991993;28;19927;-60
2021/08/18 14:13:41;;;;;;;;;;;26.40;55.90;;;;;;4993006;28;19926;-60
2021/08/18 14:16:09;;;;;;;;;;;26.40;56.10;;;;;;4992893;28;20052;-60
2021/08/18 14:18:39;;;;;;;;;;;26.40;56.00;;;;;;4992870;28;19933;-61
2021/08/18 14:21:07;;;;;;;;;;;26.40;56.20;;;;;;4992159;28;19972;-60
2021/08/18 14:23:35;;;;;;;;;;;26.40;56.20;;;;;;4975913;28;19926;-59
2021/08/18 14:26:04;;;;;;;;;;;26.40;56.20;;;;;;4992175;28;20297;-60